createdAt,value
2023-04-02T00:01:27.954Z,101000.97
2023-04-02T00:04:16.248Z,101003.53
2023-04-02T00:06:47.534Z,101000.81
2023-04-02T00:09:32.014Z,101006.53
2023-04-02T00:12:00.418Z,101012.53
2023-04-02T00:14:31.518Z,101019.56
2023-04-02T00:17:01.377Z,101023.69
2023-04-02T00:19:32.932Z,101034.13
2023-04-02T00:22:01.615Z,101037.50
2023-04-02T00:24:29.238Z,101044.63
2023-04-02T00:26:56.976Z,101042.94
2023-04-02T00:29:24.713Z,101051.22
2023-04-02T00:31:55.384Z,101055.06
2023-04-02T00:34:25.397Z,101066.41
2023-04-02T00:36:54.380Z,101056.94
2023-04-02T00:39:24.119Z,101074.09
2023-04-02T00:42:05.176Z,101074.88
2023-04-02T00:44:38.089Z,101070.72
2023-04-02T00:47:14.943Z,101082.38
2023-04-02T00:49:42.830Z,101080.88
2023-04-02T00:52:13.261Z,101086.84
2023-04-02T00:54:43.898Z,101084.81
2023-04-02T00:57:17.844Z,101094.19
2023-04-02T00:59:52.442Z,101097.91
2023-04-02T01:02:28.120Z,101098.13
2023-04-02T01:04:57.361Z,101105.25
2023-04-02T01:07:51.853Z,101116.69
2023-04-02T01:10:34.001Z,101117.59
2023-04-02T01:13:09.814Z,101120.16
2023-04-02T01:15:41.398Z,101126.06
2023-04-02T01:18:33.191Z,101132.16
2023-04-02T01:21:28.213Z,101127.75
2023-04-02T01:24:02.549Z,101139.19
2023-04-02T01:26:48.090Z,101135.84
2023-04-02T01:29:18.711Z,101137.03
2023-04-02T01:31:47.673Z,101151.56
2023-04-02T01:34:17.234Z,101150.03
2023-04-02T01:36:53.147Z,101151.16
2023-04-02T01:39:31.130Z,101163.44
2023-04-02T01:42:04.559Z,101156.84
2023-04-02T01:44:38.851Z,101177.84
2023-04-02T01:47:08.724Z,101174.09
2023-04-02T01:49:36.452Z,101183.09
2023-04-02T01:52:04.119Z,101186.81
2023-04-02T01:54:33.234Z,101199.09
2023-04-02T01:57:01.091Z,101197.50
2023-04-02T01:59:29.486Z,101200.22
2023-04-02T02:02:02.710Z,101209.88
2023-04-02T02:04:30.658Z,101215.97
2023-04-02T02:07:00.724Z,101224.50
2023-04-02T02:09:30.301Z,101225.72
2023-04-02T02:11:58.527Z,101232.06
2023-04-02T02:14:27.402Z,101228.09
2023-04-02T02:16:56.667Z,101231.81
2023-04-02T02:19:29.299Z,101230.28
2023-04-02T02:22:09.117Z,101235.78
2023-04-02T02:24:37.462Z,101244.69
2023-04-02T02:27:29.344Z,101251.03
2023-04-02T02:29:59.648Z,101252.88
2023-04-02T02:32:30.905Z,101264.31
2023-04-02T02:35:05.335Z,101259.81
2023-04-02T02:37:36.759Z,101272.59
2023-04-02T02:40:08.546Z,101280.31
2023-04-02T02:42:38.084Z,101272.09
2023-04-02T02:45:08.124Z,101275.00
2023-04-02T02:47:37.527Z,101278.13
2023-04-02T02:50:10.322Z,101282.16
2023-04-02T02:52:39.981Z,101283.38
2023-04-02T02:55:09.995Z,101283.09
2023-04-02T02:57:41.002Z,101296.13
2023-04-02T03:00:13.083Z,101290.81
2023-04-02T03:02:43.336Z,101315.09
2023-04-02T03:05:17.754Z,101314.47
2023-04-02T03:07:45.639Z,101341.91
2023-04-02T03:10:17.531Z,101347.75
2023-04-02T03:12:48.016Z,101343.00
2023-04-02T03:15:21.384Z,101357.19
2023-04-02T03:17:52.849Z,101350.25
2023-04-02T03:20:27.159Z,101364.97
2023-04-02T03:22:58.876Z,101368.22
2023-04-02T03:25:33.105Z,101369.59
2023-04-02T03:28:03.658Z,101374.66
2023-04-02T03:30:39.452Z,101383.47
2023-04-02T03:33:12.289Z,101390.75
2023-04-02T03:35:44.846Z,101389.28
2023-04-02T03:38:16.395Z,101394.13
2023-04-02T03:40:46.006Z,101399.13
2023-04-02T03:43:17.957Z,101411.56
2023-04-02T03:45:49.416Z,101411.94
2023-04-02T03:48:19.670Z,101416.63
2023-04-02T03:50:52.203Z,101424.03
2023-04-02T03:53:20.008Z,101433.88
2023-04-02T03:55:47.936Z,101432.28
2023-04-02T03:58:19.999Z,101442.59
2023-04-02T04:00:50.842Z,101443.03
2023-04-02T04:03:21.466Z,101449.13
2023-04-02T04:05:52.906Z,101450.97
2023-04-02T04:08:23.866Z,101461.31
2023-04-02T04:10:53.115Z,101465.69
2023-04-02T04:13:24.482Z,101468.56
2023-04-02T04:15:56.300Z,101466.69
2023-04-02T04:18:34.905Z,101480.72
2023-04-02T04:21:07.602Z,101486.09
2023-04-02T04:23:37.884Z,101487.19
2023-04-02T04:26:10.613Z,101490.94
2023-04-02T04:28:43.746Z,101494.06
2023-04-02T04:31:20.962Z,101503.94
2023-04-02T04:33:54.833Z,101523.22
2023-04-02T04:36:28.581Z,101525.22
2023-04-02T04:38:59.337Z,101531.44
2023-04-02T04:41:30.085Z,101538.44
2023-04-02T04:44:02.308Z,101546.44
2023-04-02T04:46:32.711Z,101553.50
2023-04-02T04:49:03.987Z,101556.91
2023-04-02T04:51:36.602Z,101551.19
2023-04-02T04:54:04.360Z,101565.81
2023-04-02T04:56:32.957Z,101565.97
2023-04-02T04:59:05.433Z,101578.22
2023-04-02T05:01:38.518Z,101584.22
2023-04-02T05:04:13.061Z,101588.63
2023-04-02T05:06:44.573Z,101594.00
2023-04-02T05:09:18.879Z,101602.72
2023-04-02T05:11:48.459Z,101607.03
2023-04-02T05:14:22.748Z,101615.22
2023-04-02T05:16:53.382Z,101615.31
2023-04-02T05:19:24.933Z,101623.16
2023-04-02T05:21:57.579Z,101629.31
2023-04-02T05:24:48.791Z,101633.00
2023-04-02T05:27:25.254Z,101638.09
2023-04-02T05:29:57.075Z,101643.47
2023-04-02T05:32:28.331Z,101645.50
2023-04-02T05:34:57.338Z,101652.56
2023-04-02T05:37:29.195Z,101661.38
2023-04-02T05:39:58.383Z,101678.78
2023-04-02T05:42:28.781Z,101675.66
2023-04-02T05:45:06.779Z,101682.72
2023-04-02T05:47:40.619Z,101688.94
2023-04-02T05:50:18.927Z,101692.28
2023-04-02T05:52:51.722Z,101698.56
2023-04-02T05:55:33.517Z,101705.25
2023-04-02T05:58:29.364Z,101715.75
2023-04-02T06:01:15.492Z,101721.97
2023-04-02T06:03:47.873Z,101737.75
2023-04-02T06:06:20.632Z,101734.78
2023-04-02T06:08:55.744Z,101731.69
2023-04-02T06:11:26.603Z,101746.47
2023-04-02T06:13:54.425Z,101760.53
2023-04-02T06:16:24.795Z,101773.66
2023-04-02T06:18:52.554Z,101781.28
2023-04-02T06:21:22.129Z,101792.66
2023-04-02T06:23:55.228Z,101796.88
2023-04-02T06:26:26.424Z,101793.38
2023-04-02T06:28:58.849Z,101797.75
2023-04-02T06:31:29.689Z,101809.97
2023-04-02T06:33:57.711Z,101810.75
2023-04-02T06:36:26.626Z,101816.78
2023-04-02T06:38:58.774Z,101821.28
2023-04-02T06:41:26.632Z,101826.53
2023-04-02T06:43:56.723Z,101828.38
2023-04-02T06:46:29.672Z,101828.38
2023-04-02T06:49:02.412Z,101836.16
2023-04-02T06:51:31.783Z,101830.09
2023-04-02T06:54:00.995Z,101854.47
2023-04-02T06:56:41.698Z,101853.44
2023-04-02T06:59:09.832Z,101854.09
2023-04-02T07:01:41.152Z,101849.09
2023-04-02T07:04:10.160Z,101861.34
2023-04-02T07:06:37.890Z,101862.06
2023-04-02T07:09:08.066Z,101855.88
2023-04-02T07:11:36.103Z,101872.44
2023-04-02T07:14:04.151Z,101877.53
2023-04-02T07:16:33.597Z,101885.22
2023-04-02T07:19:03.006Z,101879.78
2023-04-02T07:21:31.075Z,101875.13
2023-04-02T07:23:59.144Z,101888.78
2023-04-02T07:26:28.978Z,101896.59
2023-04-02T07:28:57.547Z,101897.63
2023-04-02T07:31:27.051Z,101908.03
2023-04-02T07:33:58.010Z,101916.75
2023-04-02T07:36:25.837Z,101915.19
2023-04-02T07:38:53.946Z,101919.78
2023-04-02T07:41:22.082Z,101927.78
2023-04-02T07:43:51.379Z,101938.25
2023-04-02T07:46:20.289Z,101933.94
2023-04-02T07:48:48.605Z,101935.63
2023-04-02T07:51:18.529Z,101944.34
2023-04-02T07:53:50.216Z,101955.69
2023-04-02T07:56:20.051Z,101950.44
2023-04-02T07:58:48.277Z,101949.72
2023-04-02T08:01:19.964Z,101956.59
2023-04-02T08:03:48.519Z,101958.28
2023-04-02T08:06:16.731Z,101960.00
2023-04-02T08:08:44.877Z,101967.78
2023-04-02T08:11:12.751Z,101967.63
2023-04-02T08:13:40.687Z,101980.38
2023-04-02T08:16:09.021Z,101983.09
2023-04-02T08:18:38.342Z,101988.09
2023-04-02T08:21:07.765Z,101994.19
2023-04-02T08:23:35.878Z,101999.31
2023-04-02T08:26:03.627Z,101994.09
2023-04-02T08:28:31.522Z,102008.59
2023-04-02T08:30:59.338Z,102008.59
2023-04-02T08:33:27.215Z,102027.63
2023-04-02T08:35:56.370Z,102036.38
2023-04-02T08:38:24.187Z,102031.25
2023-04-02T08:40:53.883Z,102035.66
2023-04-02T08:43:50.622Z,102032.88
2023-04-02T08:46:22.848Z,102037.75
2023-04-02T08:48:55.290Z,102038.06
2023-04-02T08:51:26.471Z,102046.41
2023-04-02T08:53:56.916Z,102049.59
2023-04-02T08:56:29.964Z,102044.81
2023-04-02T08:58:59.468Z,102039.47
2023-04-02T09:01:37.684Z,102060.06
2023-04-02T09:04:11.145Z,102066.16
2023-04-02T09:06:40.266Z,102081.13
2023-04-02T09:09:09.743Z,102078.34
2023-04-02T09:11:42.920Z,102080.53
2023-04-02T09:14:17.312Z,102087.44
2023-04-02T09:16:46.479Z,102092.72
2023-04-02T09:19:17.733Z,102089.09
2023-04-02T09:21:53.723Z,102092.38
2023-04-02T09:24:21.522Z,102100.78
2023-04-02T09:26:49.382Z,102100.53
2023-04-02T09:29:42.826Z,102106.31
2023-04-02T09:32:27.943Z,102114.06
2023-04-02T09:35:24.628Z,102117.38
2023-04-02T09:38:19.000Z,102116.00
2023-04-02T09:40:50.636Z,102132.03
2023-04-02T09:43:19.982Z,102129.28
2023-04-02T09:45:57.776Z,102127.88
2023-04-02T09:48:27.544Z,102135.09
2023-04-02T09:51:05.990Z,102127.75
2023-04-02T09:53:37.383Z,102128.13
2023-04-02T09:56:13.873Z,102137.31
2023-04-02T09:58:42.321Z,102134.88
2023-04-02T10:01:30.020Z,102149.25
2023-04-02T10:03:59.265Z,102145.41
2023-04-02T10:06:29.069Z,102141.59
2023-04-02T10:08:58.754Z,102152.56
2023-04-02T10:11:43.747Z,102151.28
2023-04-02T10:14:20.365Z,102147.19
2023-04-02T10:16:52.103Z,102157.44
2023-04-02T10:19:26.496Z,102160.50
2023-04-02T10:21:55.721Z,102166.69
2023-04-02T10:24:29.569Z,102166.69
2023-04-02T10:27:09.850Z,102163.41
2023-04-02T10:29:52.583Z,102164.16
2023-04-02T10:32:22.968Z,102170.94
2023-04-02T10:34:55.379Z,102178.47
2023-04-02T10:37:52.724Z,102188.75
2023-04-02T10:40:28.414Z,102176.50
2023-04-02T10:44:18.934Z,102187.56
2023-04-02T10:46:55.083Z,102197.38
2023-04-02T10:49:29.128Z,102197.97
2023-04-02T10:52:00.830Z,102202.88
2023-04-02T10:54:42.651Z,102202.09
2023-04-02T10:57:17.807Z,102210.88
2023-04-02T10:59:52.464Z,102213.59
2023-04-02T11:02:31.738Z,102207.63
2023-04-02T11:05:02.905Z,102225.31
2023-04-02T11:07:44.681Z,102219.03
2023-04-02T11:10:15.322Z,102222.16
2023-04-02T11:12:47.079Z,102214.81
2023-04-02T11:15:19.813Z,102227.19
2023-04-02T11:17:48.069Z,102229.47
2023-04-02T11:20:44.891Z,102239.28
2023-04-02T11:23:13.963Z,102222.03
2023-04-02T11:25:42.744Z,102232.03
2023-04-02T11:28:15.565Z,102224.47
2023-04-02T11:30:44.730Z,102237.00
2023-04-02T11:33:44.707Z,102240.69
2023-04-02T11:36:50.971Z,102239.00
2023-04-02T11:39:53.489Z,102254.97
2023-04-02T11:42:30.423Z,102243.97
2023-04-02T11:45:01.331Z,102247.19
2023-04-02T11:47:31.036Z,102251.06
2023-04-02T11:50:04.154Z,102238.22
2023-04-02T11:52:34.603Z,102251.06
2023-04-02T11:55:06.096Z,102268.00
2023-04-02T11:57:57.221Z,102256.47
2023-04-02T12:00:34.178Z,102261.94
2023-04-02T12:03:25.663Z,102272.44
2023-04-02T12:05:58.555Z,102269.28
2023-04-02T12:08:47.286Z,102262.22
2023-04-02T12:11:19.088Z,102264.47
2023-04-02T12:13:54.384Z,102262.53
2023-04-02T12:16:24.230Z,102266.47
2023-04-02T12:18:54.927Z,102273.13
2023-04-02T12:21:24.359Z,102270.25
2023-04-02T12:23:54.069Z,102265.19
2023-04-02T12:26:32.148Z,102268.16
2023-04-02T12:29:26.284Z,102276.66
2023-04-02T12:31:55.510Z,102270.84
2023-04-02T12:34:26.207Z,102273.41
2023-04-02T12:36:55.858Z,102263.25
2023-04-02T12:39:25.226Z,102281.31
2023-04-02T12:41:55.354Z,102286.88
2023-04-02T12:44:24.007Z,102280.75
2023-04-02T12:46:52.390Z,102288.06
2023-04-02T12:49:26.745Z,102280.44
2023-04-02T12:51:55.926Z,102296.09
2023-04-02T12:54:23.835Z,102295.13
2023-04-02T12:56:51.953Z,102297.91
2023-04-02T12:59:29.794Z,102295.19
2023-04-02T13:01:59.231Z,102294.88
2023-04-02T13:04:28.955Z,102302.69
2023-04-02T13:06:57.504Z,102285.16
2023-04-02T13:09:31.939Z,102296.81
2023-04-02T13:12:00.452Z,102314.41
2023-04-02T13:14:28.281Z,102315.00
2023-04-02T13:16:56.469Z,102310.06
2023-04-02T13:19:30.947Z,102316.16
2023-04-02T13:22:00.120Z,102315.50
2023-04-02T13:24:29.648Z,102308.03
2023-04-02T13:26:58.962Z,102306.66
2023-04-02T13:29:29.486Z,102308.13
2023-04-02T13:31:59.124Z,102311.59
2023-04-02T13:34:27.031Z,102305.81
2023-04-02T13:36:57.391Z,102306.72
2023-04-02T13:39:25.381Z,102314.56
2023-04-02T13:41:54.767Z,102320.13
2023-04-02T13:44:24.501Z,102314.56
2023-04-02T13:46:52.918Z,102312.09
2023-04-02T13:49:20.700Z,102311.47
2023-04-02T13:51:50.540Z,102313.78
2023-04-02T13:54:23.299Z,102315.81
2023-04-02T13:56:51.711Z,102325.06
2023-04-02T13:59:19.550Z,102322.19
2023-04-02T14:01:48.570Z,102327.97
2023-04-02T14:04:20.322Z,102323.13
2023-04-02T14:07:11.975Z,102325.22
2023-04-02T14:09:53.709Z,102340.44
2023-04-02T14:12:29.855Z,102335.22
2023-04-02T14:15:15.760Z,102347.00
2023-04-02T14:17:53.299Z,102325.75
2023-04-02T14:20:27.084Z,102345.16
2023-04-02T14:23:05.937Z,102327.59
2023-04-02T14:25:39.730Z,102343.28
2023-04-02T14:28:12.380Z,102341.91
2023-04-02T14:30:48.740Z,102339.69
2023-04-02T14:33:24.651Z,102346.31
2023-04-02T14:35:56.387Z,102326.84
2023-04-02T14:38:29.826Z,102338.44
2023-04-02T14:41:01.212Z,102334.56
2023-04-02T14:43:32.401Z,102338.47
2023-04-02T14:46:01.634Z,102340.75
2023-04-02T14:48:37.997Z,102346.59
2023-04-02T14:51:08.877Z,102344.16
2023-04-02T14:53:49.473Z,102340.84
2023-04-02T14:56:20.172Z,102347.56
2023-04-02T14:58:51.755Z,102350.09
2023-04-02T15:01:21.740Z,102352.59
2023-04-02T15:03:53.183Z,102340.38
2023-04-02T15:06:24.608Z,102355.50
2023-04-02T15:09:08.348Z,102358.50
2023-04-02T15:11:40.627Z,102363.25
2023-04-02T15:14:14.033Z,102372.09
2023-04-02T15:16:42.016Z,102359.00
2023-04-02T15:19:13.422Z,102355.59
2023-04-02T15:22:09.301Z,102362.50
2023-04-02T15:24:44.109Z,102366.38
2023-04-02T15:27:25.523Z,102365.09
2023-04-02T15:29:58.629Z,102366.03
2023-04-02T15:33:35.925Z,102367.19
2023-04-02T15:36:18.743Z,102375.34
2023-04-02T15:38:49.243Z,102379.69
2023-04-02T15:41:23.602Z,102374.38
2023-04-02T15:43:57.744Z,102376.28
2023-04-02T15:46:28.316Z,102387.72
2023-04-02T15:49:08.539Z,102389.34
2023-04-02T15:52:01.378Z,102383.13
2023-04-02T15:54:43.827Z,102379.41
2023-04-02T15:58:20.855Z,102399.19
2023-04-02T16:00:54.896Z,102404.94
2023-04-02T16:03:35.009Z,102404.44
2023-04-02T16:06:16.993Z,102403.28
2023-04-02T16:08:57.360Z,102408.44
2023-04-02T16:11:27.361Z,102410.59
2023-04-02T16:14:02.347Z,102410.97
2023-04-02T16:16:33.421Z,102406.97
2023-04-02T16:19:04.554Z,102411.56
2023-04-02T16:21:34.218Z,102411.41
2023-04-02T16:24:01.885Z,102416.84
2023-04-02T16:26:47.735Z,102423.41
2023-04-02T16:29:35.607Z,102420.19
2023-04-02T16:32:19.665Z,102420.25
2023-04-02T16:34:52.470Z,102429.94
2023-04-02T16:37:26.116Z,102427.31
2023-04-02T16:39:58.246Z,102432.78
2023-04-02T16:42:35.492Z,102431.22
2023-04-02T16:45:17.397Z,102429.00
2023-04-02T16:47:55.025Z,102439.00
2023-04-02T16:50:31.970Z,102435.72
2023-04-02T16:53:06.136Z,102449.31
2023-04-02T16:55:44.396Z,102453.81
2023-04-02T16:58:25.211Z,102453.69
2023-04-02T17:00:57.455Z,102453.81
2023-04-02T17:03:42.001Z,102466.28
2023-04-02T17:06:11.002Z,102468.59
2023-04-02T17:08:43.591Z,102463.13
2023-04-02T17:11:29.367Z,102478.22
2023-04-02T17:14:05.860Z,102467.34
2023-04-02T17:16:38.111Z,102475.00
2023-04-02T17:19:10.734Z,102483.16
2023-04-02T17:21:41.319Z,102476.91
2023-04-02T17:24:18.581Z,102494.31
2023-04-02T17:26:48.371Z,102493.97
2023-04-02T17:29:20.194Z,102486.38
2023-04-02T17:31:50.845Z,102498.22
2023-04-02T17:34:20.749Z,102500.13
2023-04-02T17:36:55.594Z,102506.88
2023-04-02T17:39:25.602Z,102508.13
2023-04-02T17:41:57.398Z,102516.38
2023-04-02T17:44:36.190Z,102520.09
2023-04-02T17:47:10.551Z,102524.00
2023-04-02T17:49:46.989Z,102527.91
2023-04-02T17:52:18.076Z,102518.03
2023-04-02T17:54:51.582Z,102536.22
2023-04-02T17:57:33.473Z,102535.69
2023-04-02T18:00:11.437Z,102544.53
2023-04-02T18:02:55.203Z,102542.34
2023-04-02T18:05:27.008Z,102553.84
2023-04-02T18:08:00.642Z,102551.28
2023-04-02T18:10:31.037Z,102557.56
2023-04-02T18:13:00.918Z,102559.41
2023-04-02T18:15:40.058Z,102560.44
2023-04-02T18:18:16.572Z,102568.59
2023-04-02T18:20:48.074Z,102563.31
2023-04-02T18:23:30.153Z,102572.00
2023-04-02T18:26:03.556Z,102576.53
2023-04-02T18:28:47.285Z,102560.16
2023-04-02T18:31:19.378Z,102579.59
2023-04-02T18:34:09.260Z,102581.44
2023-04-02T18:36:42.124Z,102593.16
2023-04-02T18:39:15.516Z,102586.53
2023-04-02T18:41:47.585Z,102599.72
2023-04-02T18:44:30.734Z,102609.66
2023-04-02T18:47:02.373Z,102610.56
2023-04-02T18:49:36.912Z,102615.06
2023-04-02T18:52:10.893Z,102629.97
2023-04-02T18:54:41.258Z,102624.84
2023-04-02T18:57:12.579Z,102621.56
2023-04-02T18:59:42.799Z,102633.97
2023-04-02T19:02:36.089Z,102631.50
2023-04-02T19:05:07.244Z,102638.59
2023-04-02T19:07:37.771Z,102641.41
2023-04-02T19:10:25.886Z,102637.97
2023-04-02T19:12:53.627Z,102638.97
2023-04-02T19:15:22.890Z,102646.25
2023-04-02T19:20:45.435Z,102660.56
2023-04-02T19:23:24.610Z,102659.88
2023-04-02T19:26:01.784Z,102659.88
2023-04-02T19:28:32.431Z,102660.13
2023-04-02T19:31:10.626Z,102665.41
2023-04-02T19:33:43.823Z,102670.69
2023-04-02T19:36:27.557Z,102665.69
2023-04-02T19:39:05.102Z,102672.75
2023-04-02T19:41:35.987Z,102671.94
2023-04-02T19:44:04.011Z,102671.94
2023-04-02T19:46:31.821Z,102685.09
2023-04-02T19:49:03.734Z,102681.53
2023-04-02T19:51:33.532Z,102681.53
2023-04-02T19:54:01.514Z,102689.44
2023-04-02T19:56:29.727Z,102693.91
2023-04-02T19:58:58.297Z,102692.19
2023-04-02T20:01:27.849Z,102688.75
2023-04-02T20:03:55.650Z,102691.59
2023-04-02T20:06:23.899Z,102691.13
2023-04-02T20:08:53.059Z,102707.63
2023-04-02T20:11:20.960Z,102705.84
2023-04-02T20:13:50.119Z,102715.66
2023-04-02T20:16:18.051Z,102721.13
2023-04-02T20:18:45.762Z,102713.41
2023-04-02T20:21:13.590Z,102720.47
2023-04-02T20:23:41.423Z,102732.97
2023-04-02T20:26:10.512Z,102730.41
2023-04-02T20:28:38.374Z,102732.25
2023-04-02T20:31:08.391Z,102737.53
2023-04-02T20:33:36.730Z,102730.59
2023-04-02T20:36:06.791Z,102741.06
2023-04-02T20:38:35.923Z,102746.34
2023-04-02T20:41:04.776Z,102745.56
2023-04-02T20:43:34.904Z,102743.78
2023-04-02T20:46:05.597Z,102755.44
2023-04-02T20:48:33.732Z,102758.97
2023-04-02T20:51:03.035Z,102749.63
2023-04-02T20:53:31.596Z,102762.72
2023-04-02T20:56:03.862Z,102760.22
2023-04-02T20:58:33.140Z,102760.47
2023-04-02T21:01:11.844Z,102764.09
2023-04-02T21:03:40.586Z,102774.72
2023-04-02T21:06:08.854Z,102772.22
2023-04-02T21:08:37.034Z,102774.09
2023-04-02T21:11:06.321Z,102785.56
2023-04-02T21:13:36.791Z,102788.25
2023-04-02T21:16:05.138Z,102785.94
2023-04-02T21:18:33.262Z,102798.53
2023-04-02T21:21:02.506Z,102803.88
2023-04-02T21:23:30.216Z,102796.88
2023-04-02T21:25:59.353Z,102801.47
2023-04-02T21:28:27.401Z,102807.66
2023-04-02T21:31:04.820Z,102811.28
2023-04-02T21:33:34.134Z,102812.34
2023-04-02T21:36:06.933Z,102822.97
2023-04-02T21:38:34.683Z,102812.50
2023-04-02T21:41:13.167Z,102815.97
2023-04-02T21:43:40.988Z,102810.84
2023-04-02T21:46:10.343Z,102819.75
2023-04-02T21:48:40.619Z,102822.50
2023-04-02T21:51:09.961Z,102825.22
2023-04-02T21:53:38.941Z,102824.50
2023-04-02T21:56:08.505Z,102822.88
2023-04-02T21:58:36.529Z,102830.91
2023-04-02T22:01:07.142Z,102835.38
2023-04-02T22:03:38.985Z,102840.63
2023-04-02T22:06:08.647Z,102841.56
2023-04-02T22:08:36.786Z,102836.44
2023-04-02T22:11:09.264Z,102835.56
2023-04-02T22:13:37.373Z,102845.44
2023-04-02T22:16:07.972Z,102846.44
2023-04-02T22:18:35.836Z,102841.22
2023-04-02T22:21:05.080Z,102841.44
2023-04-02T22:23:33.130Z,102854.66
2023-04-02T22:26:01.656Z,102854.78
2023-04-02T22:28:30.141Z,102856.63
2023-04-02T22:31:05.522Z,102857.56
2023-04-02T22:33:33.550Z,102856.78
2023-04-02T22:36:02.037Z,102861.28
2023-04-02T22:38:31.723Z,102860.66
2023-04-02T22:41:07.448Z,102854.88
2023-04-02T22:43:35.479Z,102866.09
2023-04-02T22:46:03.546Z,102868.78
2023-04-02T22:48:31.290Z,102868.00
2023-04-02T22:50:59.367Z,102874.28
2023-04-02T22:53:27.432Z,102876.09
2023-04-02T22:55:56.617Z,102882.31
2023-04-02T22:58:26.622Z,102876.34
2023-04-02T23:00:54.279Z,102878.09
2023-04-02T23:03:22.131Z,102889.53
2023-04-02T23:05:59.547Z,102886.91
2023-04-02T23:08:27.277Z,102878.28
2023-04-02T23:11:02.890Z,102882.91
2023-04-02T23:13:31.101Z,102883.03
2023-04-02T23:15:59.080Z,102892.59
2023-04-02T23:18:26.867Z,102894.47
2023-04-02T23:20:55.339Z,102901.44
2023-04-02T23:23:23.208Z,102905.09
2023-04-02T23:25:51.018Z,102899.81
2023-04-02T23:28:20.204Z,102901.63
2023-04-02T23:30:47.930Z,102906.06
2023-04-02T23:33:15.612Z,102910.34
2023-04-02T23:35:43.308Z,102907.72
2023-04-02T23:38:11.226Z,102913.03
2023-04-02T23:40:38.928Z,102910.41
2023-04-02T23:43:06.611Z,102911.31
2023-04-02T23:45:35.668Z,102902.63
2023-04-02T23:48:03.386Z,102909.69
2023-04-02T23:50:31.042Z,102910.59
2023-04-02T23:52:58.840Z,102907.97
2023-04-02T23:55:26.562Z,102907.97
2023-04-02T23:57:54.206Z,102912.41
